TimeCDT,TemperatureF,Dew PointF,Humidity,Sea Level PressureIn,VisibilityMPH,Wind Direction,Wind SpeedMPH,Gust SpeedMPH,PrecipitationIn,Events,Conditions,WindDirDegrees,DateUTC
12:15 AM,43.2,41.4,93,29.80,10.0,WSW,5.8,-,N/A,,Scattered Clouds,250,2013-10-07 05:15:00
12:35 AM,42.3,40.5,93,29.80,10.0,WSW,5.8,-,N/A,,Scattered Clouds,240,2013-10-07 05:35:00
12:55 AM,42.3,40.8,95,29.80,10.0,WSW,5.8,-,N/A,,Clear,240,2013-10-07 05:55:00
1:15 AM,41.2,39.4,93,29.79,10.0,SW,6.9,-,N/A,,Clear,220,2013-10-07 06:15:00
1:35 AM,41.5,39.9,94,29.82,10.0,West,9.2,-,N/A,,Scattered Clouds,260,2013-10-07 06:35:00
1:55 AM,41.9,40.3,94,29.82,10.0,West,8.1,-,N/A,,Mostly Cloudy,260,2013-10-07 06:55:00
2:15 AM,43.7,42.1,94,29.81,10.0,WSW,4.6,-,N/A,,Overcast,240,2013-10-07 07:15:00
2:35 AM,43.7,42.1,94,29.81,10.0,WSW,6.9,-,N/A,,Overcast,250,2013-10-07 07:35:00
2:55 AM,43.7,41.9,93,29.81,10.0,WSW,6.9,-,N/A,,Scattered Clouds,240,2013-10-07 07:55:00
3:15 AM,43.2,41.4,93,29.81,10.0,SW,8.1,-,N/A,,Clear,230,2013-10-07 08:15:00
3:35 AM,43.7,41.9,93,29.81,10.0,WSW,6.9,-,N/A,,Mostly Cloudy,240,2013-10-07 08:35:00
3:55 AM,43.7,41.9,93,29.82,10.0,WSW,6.9,-,N/A,,Overcast,240,2013-10-07 08:55:00
4:15 AM,43.7,41.9,93,29.82,10.0,WSW,5.8,-,N/A,,Overcast,240,2013-10-07 09:15:00
4:35 AM,45.0,43.2,93,29.82,10.0,WSW,5.8,-,N/A,,Overcast,250,2013-10-07 09:35:00
4:55 AM,45.7,43.9,93,29.83,10.0,WSW,9.2,-,N/A,,Overcast,250,2013-10-07 09:55:00
5:15 AM,46.4,44.2,92,29.83,10.0,WSW,5.8,-,N/A,,Overcast,250,2013-10-07 10:15:00
5:35 AM,46.4,44.6,93,29.84,10.0,WSW,5.8,-,N/A,,Overcast,250,2013-10-07 10:35:00
5:55 AM,46.8,45.0,93,29.85,10.0,West,6.9,-,N/A,,Overcast,260,2013-10-07 10:55:00
6:15 AM,47.3,45.5,93,29.85,10.0,West,8.1,-,N/A,,Overcast,260,2013-10-07 11:15:00
6:35 AM,46.4,44.6,93,29.87,10.0,West,5.8,-,N/A,,Mostly Cloudy,270,2013-10-07 11:35:00
6:55 AM,46.4,44.4,93,29.88,10.0,West,6.9,-,N/A,,Scattered Clouds,260,2013-10-07 11:55:00
7:15 AM,46.4,44.2,92,29.89,10.0,West,5.8,-,N/A,,Clear,270,2013-10-07 12:15:00
7:35 AM,46.4,44.2,92,29.90,10.0,West,5.8,-,N/A,,Clear,260,2013-10-07 12:35:00
7:55 AM,46.8,44.6,92,29.91,10.0,West,5.8,-,N/A,,Clear,280,2013-10-07 12:55:00
8:15 AM,47.7,45.3,92,29.92,10.0,West,8.1,-,N/A,,Clear,280,2013-10-07 13:15:00
8:35 AM,49.1,46.2,90,29.93,10.0,WNW,10.4,-,N/A,,Clear,290,2013-10-07 13:35:00
8:55 AM,51.4,48.2,89,29.94,10.0,WNW,9.2,-,N/A,,Clear,290,2013-10-07 13:55:00
9:15 AM,52.0,48.0,86,29.95,10.0,WNW,11.5,17.3,N/A,,Clear,290,2013-10-07 14:15:00
9:35 AM,54.0,49.6,85,29.95,10.0,WNW,12.7,-,N/A,,Scattered Clouds,290,2013-10-07 14:35:00
9:55 AM,54.0,48.9,83,29.96,10.0,West,11.5,16.1,N/A,,Scattered Clouds,280,2013-10-07 14:55:00
10:15 AM,55.8,50.0,81,29.96,10.0,West,9.2,-,N/A,,Scattered Clouds,280,2013-10-07 15:15:00
10:35 AM,57.2,49.8,76,29.97,10.0,West,10.4,-,N/A,,Clear,280,2013-10-07 15:35:00
10:55 AM,59.0,50.4,73,29.98,10.0,West,6.9,-,N/A,,Clear,280,2013-10-07 15:55:00
11:15 AM,59.5,48.2,66,29.98,10.0,NW,6.9,-,N/A,,Clear,310,2013-10-07 16:15:00
11:35 AM,61.7,48.2,61,29.99,10.0,NW,5.8,-,N/A,,Clear,320,2013-10-07 16:35:00
11:55 AM,61.7,46.6,58,29.98,10.0,WNW,5.8,-,N/A,,Clear,290,2013-10-07 16:55:00
12:15 PM,64.0,45.9,52,29.98,10.0,West,8.1,-,N/A,,Clear,260,2013-10-07 17:15:00
12:35 PM,64.0,44.8,50,29.98,10.0,West,10.4,16.1,N/A,,Clear,260,2013-10-07 17:35:00
12:55 PM,65.3,43.5,45,29.98,10.0,West,9.2,17.3,N/A,,Clear,260,2013-10-07 17:55:00
1:15 PM,66.6,43.3,43,29.98,10.0,West,11.5,19.6,N/A,,Clear,280,2013-10-07 18:15:00
1:35 PM,66.6,43.3,43,29.97,10.0,West,13.8,18.4,N/A,,Clear,260,2013-10-07 18:35:00
1:55 PM,67.5,44.1,43,29.97,10.0,WSW,15.0,18.4,N/A,,Clear,250,2013-10-07 18:55:00
2:15 PM,68.7,45.5,43,29.97,10.0,WNW,13.8,19.6,N/A,,Clear,290,2013-10-07 19:15:00
2:35 PM,69.3,44.2,40,29.97,10.0,West,12.7,21.9,N/A,,Clear,280,2013-10-07 19:35:00
2:55 PM,69.3,43.0,39,29.97,10.0,West,15.0,23.0,N/A,,Clear,270,2013-10-07 19:55:00
3:15 PM,69.3,43.3,39,29.97,10.0,WNW,15.0,18.4,N/A,,Clear,290,2013-10-07 20:15:00
3:35 PM,69.3,42.4,38,29.98,10.0,West,12.7,20.7,N/A,,Clear,270,2013-10-07 20:35:00
3:55 PM,71.4,43.9,37,29.97,10.0,West,13.8,19.6,N/A,,Clear,280,2013-10-07 20:55:00
4:15 PM,71.2,43.5,37,29.98,10.0,WNW,11.5,18.4,N/A,,Scattered Clouds,300,2013-10-07 21:15:00
4:35 PM,69.3,44.1,40,29.98,10.0,West,6.9,-,N/A,,Clear,280,2013-10-07 21:35:00
4:55 PM,68.2,42.6,40,29.98,10.0,WNW,8.1,-,N/A,,Clear,290,2013-10-07 21:55:00
5:15 PM,67.8,43.2,41,29.99,10.0,WNW,8.1,-,N/A,,Clear,300,2013-10-07 22:15:00
5:35 PM,66.6,43.9,44,29.99,10.0,WNW,6.9,-,N/A,,Clear,300,2013-10-07 22:35:00
5:55 PM,66.4,44.2,45,30.00,10.0,WNW,4.6,-,N/A,,Clear,300,2013-10-07 22:55:00
6:15 PM,64.9,44.8,48,30.00,10.0,Calm,Calm,-,N/A,,Clear,0,2013-10-07 23:15:00
6:35 PM,63.3,46.8,55,30.01,10.0,Calm,Calm,-,N/A,,Clear,0,2013-10-07 23:35:00
6:55 PM,59.9,45.9,60,30.01,10.0,WNW,3.5,-,N/A,,Clear,300,2013-10-07 23:55:00
7:15 PM,59.2,46.9,64,30.02,10.0,Calm,Calm,-,N/A,,Clear,0,2013-10-08 00:15:00
7:35 PM,59.0,48.7,69,30.04,10.0,Calm,Calm,-,N/A,,Clear,0,2013-10-08 00:35:00
7:55 PM,54.0,48.2,81,30.04,10.0,Calm,Calm,-,N/A,,Clear,0,2013-10-08 00:55:00
8:15 PM,51.4,47.5,86,30.04,10.0,Calm,Calm,-,N/A,,Clear,0,2013-10-08 01:15:00
8:35 PM,50.0,46.8,89,30.05,10.0,Calm,Calm,-,N/A,,Clear,0,2013-10-08 01:35:00
8:55 PM,53.1,48.7,85,30.06,10.0,Calm,Calm,-,N/A,,Clear,0,2013-10-08 01:55:00
9:15 PM,47.8,44.6,89,30.07,10.0,Calm,Calm,-,N/A,,Clear,0,2013-10-08 02:15:00
9:35 PM,49.1,45.5,87,30.07,10.0,Calm,Calm,-,N/A,,Clear,0,2013-10-08 02:35:00
9:55 PM,47.8,44.6,89,30.08,10.0,Calm,Calm,-,N/A,,Clear,0,2013-10-08 02:55:00
10:15 PM,46.2,43.3,90,30.09,10.0,Calm,Calm,-,N/A,,Clear,0,2013-10-08 03:15:00
10:35 PM,46.9,44.2,90,30.09,10.0,Calm,Calm,-,N/A,,Clear,0,2013-10-08 03:35:00
10:55 PM,46.4,43.2,88,30.10,10.0,Calm,Calm,-,N/A,,Clear,0,2013-10-08 03:55:00
11:15 PM,45.1,42.4,90,30.10,10.0,Calm,Calm,-,N/A,,Clear,0,2013-10-08 04:15:00
11:35 PM,45.9,43.2,90,30.10,10.0,ENE,3.5,-,N/A,,Clear,70,2013-10-08 04:35:00
11:55 PM,43.7,41.2,91,30.10,10.0,South,4.6,-,N/A,,Clear,190,2013-10-08 04:55:00